Flight Number: EUR3036 Duration: 11:00
Departure: Helsinki Vantaa (EFHK) at 08:00 Distance: 4494 Nm
Arrival: Miami Int'l (KMIA) at 19:00 Equipment: A340

Weather Information
Helsinki-Vantaa, Finland (EFHK) 60-19N 024-58E 56M May 24, 2018 - 05:20 PM EDT / 2018.05.24 2120 UTC
Wind: Variable at 1 MPH (1 KT):0
Visibility: greater than 7 mile(s):0 Temperature: 48 F (9 C) Dew Point: 41 F (5 C) Relative Humidity: 75% Pressure (altimeter): 30.42 in. Hg (1030 hPa)
ob: EFHK 242120Z VRB01KT CAVOK 09/05 Q1030 NOSIG cycle: 21
Sunrise: 01:25 Sunset: 19:08 (UTC)

MIAMI INTERNATIONAL AIRPORT , FL, United States (KMIA) 25-47N 080-19W 8M May 24, 2018 - 04:53 PM EDT / 2018.05.24 2053 UTC
Wind: from the E (100 degrees) at 10 MPH (9 KT):0
Visibility: 10 mile(s):0
Sky conditions: overcast Temperature: 81.0 F (27.2 C) Dew Point: 73.0 F (22.8 C) Relative Humidity: 76% Pressure (altimeter): 30.01 in. Hg (1016 hPa) Pressure tendency: 0.04 inches (1.4 hPa) lower than three hours ago
ob: KMIA 242053Z 10009KT 10SM SCT027 SCT060 BKN100 OVC250 27/23 A3001 RMK AO2 SLP163 T02720228 58014 cycle: 21
Sunrise: 10:34 Sunset: 00:01 (UTC)

TAF:2018/05/24 21:06 TAF AMD KMIA 242105Z 2421/2524 11012KT P6SM SCT025 BKN100 BKN150 FM250000 12005KT P6SM SCT050 BKN100 FM250300 00000KT P6SM VCSH BKN035 FM251400 11010KT P6SM VCSH BKN035

This route has never been flown.

Route map